createdAt,value
2019-02-23T00:01:07.930Z,13.08
2019-02-23T00:02:15.097Z,13.75
2019-02-23T00:03:20.218Z,12.50
2019-02-23T00:04:25.329Z,11.97
2019-02-23T00:05:30.562Z,12.85
2019-02-23T00:06:35.681Z,12.47
2019-02-23T00:07:40.848Z,12.80
2019-02-23T00:08:45.978Z,11.53
2019-02-23T00:09:51.078Z,12.70
2019-02-23T00:10:56.104Z,12.18
2019-02-23T00:12:01.201Z,11.45
2019-02-23T00:13:06.258Z,12.20
2019-02-23T00:14:11.281Z,11.88
2019-02-23T00:15:16.368Z,12.25
2019-02-23T00:16:21.431Z,11.70
2019-02-23T00:17:26.537Z,12.50
2019-02-23T00:18:31.635Z,11.73
2019-02-23T00:19:36.660Z,11.50
2019-02-23T00:20:41.719Z,11.40
2019-02-23T00:21:46.795Z,11.85
2019-02-23T00:22:51.907Z,13.13
2019-02-23T00:23:56.921Z,15.65
2019-02-23T00:25:01.959Z,12.37
2019-02-23T00:26:07.117Z,11.83
2019-02-23T00:27:12.249Z,13.53
2019-02-23T00:28:17.289Z,11.93
2019-02-23T00:29:23.263Z,12.35
2019-02-23T00:30:28.272Z,15.30
2019-02-23T00:31:33.324Z,12.33
2019-02-23T00:32:38.422Z,13.05
2019-02-23T00:33:43.444Z,12.65
2019-02-23T00:34:48.522Z,12.73
2019-02-23T00:35:53.611Z,12.55
2019-02-23T00:36:58.760Z,13.22
2019-02-23T00:38:03.898Z,11.95
2019-02-23T00:39:08.982Z,13.35
2019-02-23T00:40:15.170Z,13.88
2019-02-23T00:41:20.257Z,12.75
2019-02-23T00:42:25.372Z,12.88
2019-02-23T00:43:30.497Z,14.18
2019-02-23T00:44:35.617Z,13.20
2019-02-23T00:45:40.754Z,13.05
2019-02-23T00:46:45.877Z,14.10
2019-02-23T00:47:51.030Z,13.00
2019-02-23T00:48:57.236Z,13.15
2019-02-23T00:50:02.391Z,13.00
2019-02-23T00:51:07.562Z,13.62
2019-02-23T00:52:12.650Z,12.78
2019-02-23T00:53:17.782Z,14.80
2019-02-23T00:54:22.879Z,12.40
2019-02-23T00:55:28.031Z,14.25
2019-02-23T00:56:33.113Z,13.65
2019-02-23T00:57:38.241Z,14.87
2019-02-23T00:58:43.382Z,14.18
2019-02-23T00:59:48.431Z,13.88
2019-02-23T01:00:53.564Z,14.47
2019-02-23T01:01:58.669Z,12.82
2019-02-23T01:03:03.861Z,13.65
2019-02-23T01:04:08.945Z,13.32
2019-02-23T01:05:14.073Z,13.90
2019-02-23T01:06:19.552Z,14.13
2019-02-23T01:07:24.635Z,12.53
2019-02-23T01:08:29.682Z,13.90
2019-02-23T01:09:34.714Z,13.22
2019-02-23T01:10:39.852Z,13.10
2019-02-23T01:11:44.964Z,13.88
2019-02-23T01:12:50.064Z,13.10
2019-02-23T01:13:55.222Z,13.30
2019-02-23T01:15:00.306Z,15.18
2019-02-23T01:16:05.437Z,13.78
2019-02-23T01:17:10.662Z,14.15
2019-02-23T01:18:15.903Z,14.15
2019-02-23T01:19:20.998Z,14.68
2019-02-23T01:20:25.996Z,13.30
2019-02-23T01:21:31.100Z,14.73
2019-02-23T01:22:36.213Z,14.73
2019-02-23T01:23:41.321Z,14.93
2019-02-23T01:24:46.418Z,14.38
2019-02-23T01:25:51.781Z,14.68
2019-02-23T01:26:56.833Z,14.07
2019-02-23T01:28:01.891Z,14.90
2019-02-23T01:29:06.965Z,15.70
2019-02-23T01:30:12.596Z,14.70
2019-02-23T01:31:17.728Z,16.00
2019-02-23T01:32:22.780Z,15.15
2019-02-23T01:33:27.792Z,15.53
2019-02-23T01:34:33.992Z,14.25
2019-02-23T01:35:39.048Z,16.80
2019-02-23T01:36:44.185Z,15.93
2019-02-23T01:37:49.633Z,15.90
2019-02-23T01:38:54.657Z,15.40
2019-02-23T01:39:59.927Z,15.72
2019-02-23T01:41:05.060Z,17.45
2019-02-23T01:42:10.190Z,14.75
2019-02-23T01:43:15.423Z,14.43
2019-02-23T01:44:20.563Z,15.55
2019-02-23T01:45:25.733Z,16.12
2019-02-23T01:46:30.907Z,14.20
2019-02-23T01:47:36.063Z,15.83
2019-02-23T01:48:41.193Z,16.40
2019-02-23T01:49:46.336Z,14.83
2019-02-23T01:50:51.817Z,17.05
2019-02-23T01:51:56.957Z,15.70
2019-02-23T01:53:01.974Z,16.55
2019-02-23T01:54:07.092Z,16.12
2019-02-23T01:55:12.245Z,15.72
2019-02-23T01:56:17.470Z,15.60
2019-02-23T01:57:22.632Z,15.68
2019-02-23T01:58:27.893Z,16.90
2019-02-23T01:59:33.054Z,15.48
2019-02-23T02:00:38.793Z,16.55
2019-02-23T02:01:43.972Z,17.00
2019-02-23T02:02:49.396Z,16.50
2019-02-23T02:03:54.421Z,16.85
2019-02-23T02:05:00.604Z,17.87
2019-02-23T02:06:05.850Z,17.52
2019-02-23T02:07:11.453Z,16.40
2019-02-23T02:08:16.597Z,17.30
2019-02-23T02:09:21.859Z,17.42
2019-02-23T02:10:27.101Z,17.87
2019-02-23T02:11:32.359Z,16.60
2019-02-23T02:12:37.589Z,16.52
2019-02-23T02:13:43.801Z,16.65
2019-02-23T02:14:48.937Z,18.67
2019-02-23T02:15:54.069Z,17.10
2019-02-23T02:16:59.184Z,20.50
2019-02-23T02:18:04.221Z,19.65
2019-02-23T02:19:09.345Z,18.37
2019-02-23T02:20:14.993Z,18.45
2019-02-23T02:21:20.311Z,16.87
2019-02-23T02:22:25.439Z,19.02
2019-02-23T02:23:30.573Z,20.45
2019-02-23T02:24:35.644Z,18.17
2019-02-23T02:25:40.781Z,17.07
2019-02-23T02:26:45.847Z,18.20
2019-02-23T02:27:51.003Z,17.75
2019-02-23T02:28:57.246Z,18.45
2019-02-23T02:30:02.419Z,18.75
2019-02-23T02:31:07.686Z,17.75
2019-02-23T02:32:12.857Z,18.70
2019-02-23T02:33:17.864Z,17.95
2019-02-23T02:34:22.965Z,20.80
2019-02-23T02:35:28.003Z,18.67
2019-02-23T02:36:33.311Z,18.95
2019-02-23T02:37:38.467Z,20.08
2019-02-23T02:38:43.719Z,19.40
2019-02-23T02:39:48.864Z,19.82
2019-02-23T02:40:55.137Z,21.90
2019-02-23T02:42:00.375Z,18.55
2019-02-23T02:43:05.521Z,19.52
2019-02-23T02:44:10.650Z,19.23
2019-02-23T02:45:15.668Z,18.25
2019-02-23T02:46:23.313Z,19.62
2019-02-23T02:47:28.477Z,18.50
2019-02-23T02:48:36.730Z,19.98
2019-02-23T02:49:41.892Z,19.07
2019-02-23T02:50:46.935Z,18.17
2019-02-23T02:51:53.077Z,19.10
2019-02-23T02:52:58.128Z,18.02
2019-02-23T02:54:03.317Z,19.05
2019-02-23T02:55:09.478Z,21.65
2019-02-23T02:56:14.593Z,20.27
2019-02-23T02:57:19.701Z,20.62
2019-02-23T02:58:25.122Z,21.35
2019-02-23T02:59:31.445Z,18.67
2019-02-23T03:00:36.595Z,19.40
2019-02-23T03:01:41.803Z,17.07
2019-02-23T03:02:46.886Z,20.55
2019-02-23T03:03:53.333Z,19.95
2019-02-23T03:04:58.425Z,19.10
2019-02-23T03:06:03.533Z,19.92
2019-02-23T03:07:08.761Z,20.65
2019-02-23T03:08:13.950Z,18.60
2019-02-23T03:09:19.122Z,23.18
2019-02-23T03:10:24.158Z,20.55
2019-02-23T03:11:29.364Z,20.85
2019-02-23T03:12:34.530Z,19.12
2019-02-23T03:13:40.821Z,18.98
2019-02-23T03:14:45.940Z,19.10
2019-02-23T03:15:51.097Z,20.00
2019-02-23T03:16:56.211Z,22.17
2019-02-23T03:18:01.424Z,20.15
2019-02-23T03:19:06.586Z,21.23
2019-02-23T03:20:11.688Z,21.05
2019-02-23T03:21:16.840Z,19.20
2019-02-23T03:22:21.957Z,21.35
2019-02-23T03:23:27.100Z,19.45
2019-02-23T03:24:32.248Z,20.45
2019-02-23T03:25:37.360Z,20.68
2019-02-23T03:26:42.579Z,20.30
2019-02-23T03:27:47.711Z,20.88
2019-02-23T03:28:52.866Z,20.48
2019-02-23T03:29:58.031Z,20.48
2019-02-23T03:31:05.929Z,21.37
2019-02-23T03:32:10.964Z,20.75
2019-02-23T03:33:16.102Z,21.05
2019-02-23T03:34:21.544Z,20.15
2019-02-23T03:35:26.767Z,19.87
2019-02-23T03:36:31.842Z,23.27
2019-02-23T03:37:36.922Z,22.62
2019-02-23T03:38:42.037Z,21.80
2019-02-23T03:39:47.113Z,21.75
2019-02-23T03:40:53.776Z,21.95
2019-02-23T03:41:58.937Z,23.40
2019-02-23T03:43:03.989Z,22.55
2019-02-23T03:44:11.532Z,21.62
2019-02-23T03:45:18.929Z,21.15
2019-02-23T03:46:25.172Z,22.20
2019-02-23T03:47:30.288Z,22.82
2019-02-23T03:48:35.370Z,24.05
2019-02-23T03:49:43.319Z,22.42
2019-02-23T03:50:49.598Z,23.55
2019-02-23T03:51:54.724Z,23.45
2019-02-23T03:52:59.964Z,23.45
2019-02-23T03:54:05.056Z,23.85
2019-02-23T03:55:11.634Z,24.30
2019-02-23T03:56:16.660Z,22.30
2019-02-23T03:57:21.746Z,24.37
2019-02-23T03:58:26.841Z,23.15
2019-02-23T03:59:32.016Z,22.40
2019-02-23T04:00:37.165Z,24.10
2019-02-23T04:01:43.898Z,22.62
2019-02-23T04:02:50.231Z,23.92
2019-02-23T04:03:55.524Z,24.70
2019-02-23T04:05:00.636Z,22.70
2019-02-23T04:06:05.859Z,23.30
2019-02-23T04:07:10.961Z,23.02
2019-02-23T04:08:16.097Z,22.27
2019-02-23T04:09:21.213Z,24.40
2019-02-23T04:10:26.406Z,23.95
2019-02-23T04:11:31.660Z,23.90
2019-02-23T04:12:36.685Z,24.07
2019-02-23T04:13:41.780Z,24.77
2019-02-23T04:14:47.037Z,23.52
2019-02-23T04:15:52.257Z,23.80
2019-02-23T04:16:57.420Z,26.80
2019-02-23T04:18:02.546Z,25.60
2019-02-23T04:19:07.699Z,24.65
2019-02-23T04:20:12.797Z,18.92
2019-02-23T04:21:18.064Z,25.15
2019-02-23T04:22:23.098Z,24.82
2019-02-23T04:23:28.149Z,26.77
2019-02-23T04:24:33.335Z,26.90
2019-02-23T04:25:38.560Z,24.30
2019-02-23T04:26:43.862Z,26.10
2019-02-23T04:27:48.981Z,24.10
2019-02-23T04:28:54.075Z,25.88
2019-02-23T04:29:59.097Z,24.95
2019-02-23T04:31:05.675Z,25.52
2019-02-23T04:32:10.767Z,26.57
2019-02-23T04:33:15.948Z,24.98
2019-02-23T04:34:21.241Z,25.70
2019-02-23T04:35:26.278Z,26.68
2019-02-23T04:36:31.301Z,24.60
2019-02-23T04:37:36.414Z,26.07
2019-02-23T04:38:41.633Z,26.82
2019-02-23T04:39:46.697Z,26.75
2019-02-23T04:40:51.721Z,26.30
2019-02-23T04:41:56.792Z,27.42
2019-02-23T04:43:01.817Z,27.00
2019-02-23T04:44:06.917Z,27.17
2019-02-23T04:45:12.061Z,28.00
2019-02-23T04:46:17.206Z,26.25
2019-02-23T04:47:22.368Z,26.85
2019-02-23T04:48:27.548Z,27.37
2019-02-23T04:49:32.632Z,27.55
2019-02-23T04:50:37.676Z,26.23
2019-02-23T04:51:42.949Z,27.90
2019-02-23T04:52:48.484Z,25.80
2019-02-23T04:53:53.514Z,25.82
2019-02-23T04:54:58.638Z,27.80
2019-02-23T04:56:03.691Z,26.12
2019-02-23T04:57:08.811Z,27.55
2019-02-23T04:58:13.944Z,28.65
2019-02-23T04:59:18.969Z,26.97
2019-02-23T05:00:24.072Z,27.15
2019-02-23T05:01:29.207Z,25.72
2019-02-23T05:02:34.348Z,27.93
2019-02-23T05:03:39.474Z,25.90
2019-02-23T05:04:44.560Z,26.55
2019-02-23T05:05:49.660Z,26.10
2019-02-23T05:06:56.329Z,27.77
2019-02-23T05:08:01.416Z,26.57
2019-02-23T05:09:07.210Z,27.98
2019-02-23T05:10:12.304Z,26.80
2019-02-23T05:11:17.367Z,25.37
2019-02-23T05:12:22.570Z,25.25
2019-02-23T05:13:27.599Z,27.22
2019-02-23T05:14:32.826Z,27.30
2019-02-23T05:15:38.568Z,27.22
2019-02-23T05:16:43.623Z,25.75
2019-02-23T05:17:48.632Z,25.00
2019-02-23T05:18:53.810Z,28.40
2019-02-23T05:19:58.910Z,29.07
2019-02-23T05:21:04.029Z,26.50
2019-02-23T05:22:09.118Z,27.93
2019-02-23T05:23:14.138Z,28.17
2019-02-23T05:24:19.248Z,25.97
2019-02-23T05:25:24.279Z,28.50
2019-02-23T05:26:29.464Z,28.60
2019-02-23T05:27:34.562Z,28.57
2019-02-23T05:28:39.619Z,28.45
2019-02-23T05:29:45.718Z,28.57
2019-02-23T05:30:50.734Z,27.45
2019-02-23T05:31:55.829Z,31.42
2019-02-23T05:33:00.935Z,31.02
2019-02-23T05:34:06.014Z,34.40
2019-02-23T05:35:12.069Z,33.25
2019-02-23T05:36:17.168Z,31.87
2019-02-23T05:37:22.334Z,30.15
2019-02-23T05:38:27.470Z,30.70
2019-02-23T05:39:32.525Z,30.52
2019-02-23T05:40:37.530Z,29.23
2019-02-23T05:41:42.558Z,28.60
2019-02-23T05:42:47.683Z,29.63
2019-02-23T05:43:52.697Z,29.27
2019-02-23T05:44:57.785Z,28.17
2019-02-23T05:46:02.882Z,28.07
2019-02-23T05:47:07.935Z,29.37
2019-02-23T05:48:14.680Z,27.32
2019-02-23T05:49:19.828Z,28.98
2019-02-23T05:50:24.859Z,29.65
2019-02-23T05:51:38.367Z,31.73
2019-02-23T05:52:36.689Z,31.95
2019-02-23T05:53:41.808Z,33.55
2019-02-23T05:54:46.832Z,34.13
2019-02-23T05:55:51.869Z,34.05
2019-02-23T05:56:56.967Z,33.90
2019-02-23T05:58:02.079Z,35.30
2019-02-23T05:59:07.127Z,36.77
2019-02-23T06:00:12.556Z,36.33
2019-02-23T06:01:17.738Z,36.25
2019-02-23T06:02:22.839Z,34.27
2019-02-23T06:03:27.878Z,36.83
2019-02-23T06:04:33.027Z,37.05
2019-02-23T06:05:38.117Z,36.60
2019-02-23T06:06:43.110Z,35.40
2019-02-23T06:07:49.195Z,36.42
2019-02-23T06:08:54.321Z,37.42
2019-02-23T06:09:59.391Z,38.10
2019-02-23T06:11:04.486Z,36.03
2019-02-23T06:12:09.572Z,35.15
2019-02-23T06:13:14.680Z,35.80
2019-02-23T06:14:19.797Z,35.30
2019-02-23T06:15:25.445Z,34.88
2019-02-23T06:16:30.496Z,35.20
2019-02-23T06:17:35.525Z,34.70
2019-02-23T06:18:40.559Z,32.33
2019-02-23T06:19:45.591Z,31.33
2019-02-23T06:20:50.691Z,30.82
2019-02-23T06:21:57.937Z,32.17
2019-02-23T06:23:03.066Z,31.95
2019-02-23T06:24:08.197Z,30.95
2019-02-23T06:25:13.307Z,32.15
2019-02-23T06:26:18.400Z,30.27
2019-02-23T06:27:23.591Z,30.30
2019-02-23T06:28:28.817Z,32.55
2019-02-23T06:29:34.013Z,30.17
2019-02-23T06:30:39.502Z,31.10
2019-02-23T06:31:44.547Z,27.62
2019-02-23T06:32:49.572Z,27.27
2019-02-23T06:33:54.639Z,28.75
2019-02-23T06:34:59.974Z,26.90
2019-02-23T06:36:05.008Z,28.45
2019-02-23T06:37:10.024Z,25.10
2019-02-23T06:38:15.089Z,23.40
2019-02-23T06:39:20.351Z,22.75
2019-02-23T06:40:25.728Z,23.45
2019-02-23T06:41:31.108Z,23.00
2019-02-23T06:42:36.325Z,20.50
2019-02-23T06:43:41.499Z,20.77
2019-02-23T06:44:46.612Z,20.37
2019-02-23T06:45:51.755Z,17.48
2019-02-23T06:46:56.914Z,19.35
2019-02-23T06:48:02.100Z,18.87
2019-02-23T06:49:07.212Z,19.20
2019-02-23T06:50:12.352Z,18.82
2019-02-23T06:51:17.380Z,17.15
2019-02-23T06:52:22.497Z,16.48
2019-02-23T06:53:27.512Z,16.15
2019-02-23T06:54:32.553Z,13.08
2019-02-23T06:55:37.644Z,16.45
2019-02-23T06:56:42.753Z,14.68
2019-02-23T06:57:47.879Z,16.15
2019-02-23T06:58:53.004Z,15.93
2019-02-23T06:59:58.070Z,17.80
2019-02-23T07:01:03.264Z,16.05
2019-02-23T07:02:08.393Z,15.50
2019-02-23T07:03:13.504Z,15.08
2019-02-23T07:04:18.534Z,14.38
2019-02-23T07:05:23.667Z,15.45
2019-02-23T07:06:28.792Z,14.83
2019-02-23T07:07:33.928Z,14.20
2019-02-23T07:08:39.048Z,15.88
2019-02-23T07:09:44.175Z,14.33
2019-02-23T07:10:49.292Z,14.90
2019-02-23T07:11:54.408Z,14.13
2019-02-23T07:12:59.545Z,14.68
2019-02-23T07:14:04.685Z,15.78
2019-02-23T07:15:10.872Z,14.85
2019-02-23T07:16:16.422Z,13.70
2019-02-23T07:17:21.617Z,15.45
2019-02-23T07:18:26.816Z,13.90
2019-02-23T07:19:31.840Z,14.03
2019-02-23T07:20:44.160Z,14.43
2019-02-23T07:21:43.795Z,13.80
2019-02-23T07:22:48.924Z,14.10
2019-02-23T07:23:54.009Z,14.30
2019-02-23T07:24:59.137Z,13.83
2019-02-23T07:26:04.293Z,14.43
2019-02-23T07:27:09.409Z,14.10
2019-02-23T07:28:14.559Z,14.28
2019-02-23T07:29:19.741Z,13.93
2019-02-23T07:30:24.840Z,12.82
2019-02-23T07:31:30.056Z,15.08
2019-02-23T07:32:35.209Z,13.90
2019-02-23T07:33:40.375Z,13.35
2019-02-23T07:34:45.505Z,13.10
2019-02-23T07:35:50.622Z,13.20
2019-02-23T07:36:55.733Z,14.95
2019-02-23T07:38:00.838Z,13.13
2019-02-23T07:39:06.888Z,13.88
2019-02-23T07:40:12.377Z,14.20
2019-02-23T07:41:17.726Z,13.62
2019-02-23T07:42:23.724Z,13.70
2019-02-23T07:43:28.837Z,14.25
2019-02-23T07:44:33.971Z,14.80
2019-02-23T07:45:39.106Z,14.30
2019-02-23T07:46:44.228Z,14.58
2019-02-23T07:47:49.348Z,14.87
2019-02-23T07:48:54.496Z,14.40
2019-02-23T07:49:59.591Z,14.03
2019-02-23T07:51:04.707Z,14.55
2019-02-23T07:52:09.808Z,14.33
2019-02-23T07:53:15.065Z,14.65
2019-02-23T07:54:20.397Z,13.65
2019-02-23T07:55:25.536Z,15.28
2019-02-23T07:56:30.710Z,14.45
2019-02-23T07:57:35.849Z,13.93
2019-02-23T07:58:40.983Z,14.40
2019-02-23T07:59:46.137Z,15.20
2019-02-23T08:00:51.184Z,14.18
2019-02-23T08:01:56.341Z,14.38
2019-02-23T08:03:01.451Z,14.63
2019-02-23T08:04:06.589Z,13.05
2019-02-23T08:05:12.784Z,14.55
2019-02-23T08:06:18.034Z,14.58
2019-02-23T08:07:23.151Z,14.68
2019-02-23T08:08:28.287Z,13.70
2019-02-23T08:09:33.467Z,14.75
2019-02-23T08:10:41.517Z,15.35
2019-02-23T08:11:47.613Z,14.70
2019-02-23T08:12:52.741Z,15.35
2019-02-23T08:13:57.881Z,14.63
2019-02-23T08:15:02.916Z,15.25
2019-02-23T08:16:08.051Z,14.30
2019-02-23T08:17:13.218Z,14.75
2019-02-23T08:18:19.445Z,13.85
2019-02-23T08:19:24.575Z,14.40
2019-02-23T08:20:29.714Z,16.12
2019-02-23T08:21:34.835Z,18.10
2019-02-23T08:22:39.993Z,14.75
2019-02-23T08:23:45.130Z,13.93
2019-02-23T08:24:50.353Z,14.25
2019-02-23T08:26:14.447Z,14.45
2019-02-23T08:27:30.844Z,14.80
2019-02-23T08:28:50.000Z,13.83
2019-02-23T08:30:06.501Z,15.72
2019-02-23T08:31:22.992Z,14.95
2019-02-23T08:32:40.424Z,14.75
2019-02-23T08:33:56.928Z,14.87
2019-02-23T08:35:13.381Z,15.45
2019-02-23T08:36:30.057Z,16.12
2019-02-23T08:37:47.086Z,15.70
2019-02-23T08:39:04.011Z,14.85
2019-02-23T08:40:22.354Z,14.60
2019-02-23T08:41:39.109Z,15.83
2019-02-23T08:42:55.866Z,14.33
2019-02-23T08:44:12.133Z,14.40
2019-02-23T08:45:28.728Z,14.95
2019-02-23T08:46:45.212Z,15.50
2019-02-23T08:48:01.825Z,15.60
2019-02-23T08:49:18.400Z,14.78
2019-02-23T08:50:34.946Z,15.32
2019-02-23T08:51:51.606Z,16.15
2019-02-23T08:53:08.813Z,14.75
2019-02-23T08:54:26.108Z,16.85
2019-02-23T08:55:43.461Z,14.85
2019-02-23T08:57:00.462Z,13.93
2019-02-23T08:58:16.930Z,16.42
2019-02-23T08:59:33.731Z,14.98
2019-02-23T09:00:50.357Z,15.70
2019-02-23T09:02:06.852Z,15.50
2019-02-23T09:03:23.499Z,14.63
2019-02-23T09:04:38.793Z,15.70
2019-02-23T09:06:02.908Z,15.93
2019-02-23T09:07:19.243Z,16.00
2019-02-23T09:08:35.929Z,15.38
2019-02-23T09:09:52.547Z,15.63
2019-02-23T09:11:08.890Z,15.05
2019-02-23T09:12:25.583Z,15.08
2019-02-23T09:13:40.844Z,14.00
2019-02-23T09:15:05.199Z,16.15
2019-02-23T09:16:29.327Z,15.50
2019-02-23T09:17:46.527Z,14.35
2019-02-23T09:19:03.009Z,16.40
2019-02-23T09:20:28.537Z,15.75
2019-02-23T09:21:38.025Z,15.28
2019-02-23T09:23:00.148Z,15.08
2019-02-23T09:24:12.593Z,15.70
2019-02-23T09:25:29.875Z,14.47
2019-02-23T09:26:46.462Z,15.13
2019-02-23T09:28:03.069Z,14.60
2019-02-23T09:29:19.425Z,13.83
2019-02-23T09:30:36.298Z,14.43
2019-02-23T09:31:53.448Z,15.58
2019-02-23T09:33:09.825Z,15.40
2019-02-23T09:34:26.328Z,14.87
2019-02-23T09:35:42.800Z,14.15
2019-02-23T09:36:59.390Z,14.98
2019-02-23T09:38:15.680Z,13.70
2019-02-23T09:39:32.401Z,13.55
2019-02-23T09:40:48.886Z,14.70
2019-02-23T09:42:07.740Z,15.30
2019-02-23T09:43:23.852Z,14.68
2019-02-23T09:44:41.113Z,13.35
2019-02-23T09:45:58.405Z,13.88
2019-02-23T09:47:14.922Z,14.90
2019-02-23T09:48:31.686Z,13.38
2019-02-23T09:49:48.923Z,14.23
2019-02-23T09:51:05.276Z,14.18
2019-02-23T09:52:21.623Z,13.93
2019-02-23T09:53:39.318Z,12.53
2019-02-23T09:54:56.172Z,13.30
2019-02-23T09:56:12.795Z,14.00
2019-02-23T09:57:29.785Z,14.53
2019-02-23T09:58:45.099Z,12.25
2019-02-23T10:00:09.475Z,13.25
2019-02-23T10:01:33.680Z,12.95
2019-02-23T10:02:50.218Z,11.93
2019-02-23T10:04:06.872Z,13.18
2019-02-23T10:05:23.529Z,11.95
2019-02-23T10:06:40.247Z,12.55
2019-02-23T10:07:59.814Z,12.10
2019-02-23T10:09:16.986Z,12.90
2019-02-23T10:10:33.652Z,12.73
2019-02-23T10:11:51.993Z,12.13
2019-02-23T10:13:08.324Z,13.40
2019-02-23T10:14:25.242Z,12.60
2019-02-23T10:15:42.517Z,12.20
2019-02-23T10:16:59.468Z,13.38
2019-02-23T10:18:16.700Z,13.60
2019-02-23T10:19:33.254Z,13.00
2019-02-23T10:20:49.980Z,14.30
2019-02-23T10:22:06.258Z,12.98
2019-02-23T10:23:23.846Z,13.68
2019-02-23T10:24:40.145Z,12.90
2019-02-23T10:25:56.981Z,13.83
2019-02-23T10:27:13.582Z,13.32
2019-02-23T10:28:30.223Z,12.20
2019-02-23T10:29:47.374Z,12.68
2019-02-23T10:31:04.707Z,13.13
2019-02-23T10:32:21.467Z,11.53
2019-02-23T10:33:47.146Z,12.25
2019-02-23T10:34:56.468Z,12.07
2019-02-23T10:36:13.716Z,10.72
2019-02-23T10:37:30.410Z,12.68
2019-02-23T10:38:46.871Z,11.78
2019-02-23T10:40:05.434Z,11.40
2019-02-23T10:41:22.645Z,11.78
2019-02-23T10:42:39.041Z,10.95
2019-02-23T10:43:55.640Z,10.88
2019-02-23T10:45:13.348Z,10.58
2019-02-23T10:46:29.739Z,11.97
2019-02-23T10:47:46.916Z,11.10
2019-02-23T10:49:03.666Z,11.55
2019-02-23T10:50:20.083Z,11.15
2019-02-23T10:51:36.820Z,11.20
2019-02-23T10:52:54.021Z,11.28
2019-02-23T10:54:10.647Z,10.72
2019-02-23T10:55:27.688Z,10.70
2019-02-23T10:56:44.333Z,10.00
2019-02-23T10:58:00.665Z,8.53
2019-02-23T10:59:17.240Z,9.08
2019-02-23T11:00:32.622Z,9.10
2019-02-23T11:01:56.741Z,10.65
2019-02-23T11:03:13.368Z,9.50
2019-02-23T11:04:29.785Z,8.90
2019-02-23T11:05:46.231Z,9.35
2019-02-23T11:07:02.860Z,7.80
2019-02-23T11:08:19.331Z,8.58
2019-02-23T11:09:38.006Z,8.43
2019-02-23T11:10:54.564Z,8.75
2019-02-23T11:12:11.883Z,8.20
2019-02-23T11:13:28.525Z,9.23
2019-02-23T11:14:46.000Z,9.98
2019-02-23T11:16:02.289Z,8.73
2019-02-23T11:17:19.284Z,7.85
2019-02-23T11:18:35.923Z,8.90
2019-02-23T11:19:53.144Z,8.83
2019-02-23T11:21:10.403Z,8.28
2019-02-23T11:22:26.855Z,8.60
2019-02-23T11:23:44.673Z,8.38
2019-02-23T11:25:01.094Z,8.98
2019-02-23T11:26:17.607Z,8.05
2019-02-23T11:27:34.788Z,8.55
2019-02-23T11:28:51.964Z,7.53
2019-02-23T11:30:08.838Z,7.47
2019-02-23T11:31:25.988Z,8.00
2019-02-23T11:32:42.517Z,7.78
2019-02-23T11:33:59.088Z,8.50
2019-02-23T11:35:17.371Z,8.50
2019-02-23T11:36:34.757Z,8.05
2019-02-23T11:37:51.377Z,8.55
2019-02-23T11:38:56.402Z,7.87
2019-02-23T11:40:01.588Z,7.15
2019-02-23T11:41:06.831Z,7.22
2019-02-23T11:42:11.969Z,7.22
2019-02-23T11:43:17.021Z,5.87
2019-02-23T11:44:22.125Z,6.58
2019-02-23T11:45:27.260Z,6.05
2019-02-23T11:46:32.432Z,6.10
2019-02-23T11:47:37.541Z,6.10
2019-02-23T11:48:42.651Z,5.95
2019-02-23T11:49:47.673Z,6.25
2019-02-23T11:50:52.983Z,6.42
2019-02-23T11:51:58.117Z,5.65
2019-02-23T11:53:03.127Z,5.42
2019-02-23T11:54:08.345Z,5.33
2019-02-23T11:55:13.545Z,5.20
2019-02-23T11:56:18.687Z,5.45
2019-02-23T11:57:23.908Z,5.37
2019-02-23T11:58:29.025Z,5.30
2019-02-23T11:59:34.134Z,6.25
2019-02-23T12:00:39.299Z,7.35
2019-02-23T12:01:44.433Z,5.47
2019-02-23T12:02:52.497Z,5.90
2019-02-23T12:03:56.373Z,5.62
2019-02-23T12:05:01.516Z,5.72
2019-02-23T12:06:07.870Z,5.30
2019-02-23T12:07:13.048Z,5.40
2019-02-23T12:08:18.160Z,4.90
2019-02-23T12:09:23.273Z,5.87
2019-02-23T12:10:28.401Z,4.47
2019-02-23T12:11:33.554Z,4.62
2019-02-23T12:12:41.250Z,4.58
2019-02-23T12:13:46.415Z,4.50
2019-02-23T12:14:51.530Z,4.62
2019-02-23T12:15:56.568Z,5.17
2019-02-23T12:17:01.632Z,5.17
2019-02-23T12:18:06.873Z,5.25
2019-02-23T12:19:12.016Z,4.87
2019-02-23T12:20:18.122Z,4.80
2019-02-23T12:21:23.249Z,4.80
2019-02-23T12:22:28.367Z,4.62
2019-02-23T12:23:33.467Z,4.40
2019-02-23T12:24:38.576Z,4.67
2019-02-23T12:25:43.709Z,3.95
2019-02-23T12:26:48.790Z,4.50
2019-02-23T12:27:53.949Z,4.90
2019-02-23T12:28:58.999Z,3.90
2019-02-23T12:30:04.270Z,3.80
2019-02-23T12:31:09.739Z,4.70
2019-02-23T12:32:14.868Z,4.25
2019-02-23T12:33:19.921Z,4.62
2019-02-23T12:34:25.056Z,4.42
2019-02-23T12:35:30.176Z,4.33
2019-02-23T12:36:35.282Z,3.95
2019-02-23T12:37:40.360Z,4.55
2019-02-23T12:38:45.459Z,3.65
2019-02-23T12:39:50.501Z,4.53
2019-02-23T12:40:55.604Z,4.58
2019-02-23T12:42:00.672Z,4.33
2019-02-23T12:43:05.782Z,4.97
2019-02-23T12:44:10.883Z,5.37
2019-02-23T12:45:16.012Z,5.05
2019-02-23T12:46:21.080Z,4.67
2019-02-23T12:47:26.105Z,4.00
2019-02-23T12:48:31.171Z,3.70
2019-02-23T12:49:36.392Z,4.30
2019-02-23T12:50:41.500Z,4.67
2019-02-23T12:51:46.592Z,4.50
2019-02-23T12:52:52.670Z,6.47
2019-02-23T12:53:57.733Z,4.17
2019-02-23T12:55:02.798Z,4.95
2019-02-23T12:56:07.848Z,4.83
2019-02-23T12:57:13.017Z,4.70
2019-02-23T12:58:18.149Z,5.05
2019-02-23T12:59:23.176Z,4.62
2019-02-23T13:00:29.432Z,7.37
2019-02-23T13:01:34.557Z,4.08
2019-02-23T13:02:39.593Z,3.95
2019-02-23T13:03:44.656Z,4.03
2019-02-23T13:04:49.789Z,4.40
2019-02-23T13:05:55.902Z,4.55
2019-02-23T13:07:01.293Z,5.35
2019-02-23T13:08:07.613Z,4.78
2019-02-23T13:09:17.943Z,4.47
2019-02-23T13:10:23.063Z,4.28
2019-02-23T13:11:28.172Z,4.80
2019-02-23T13:13:25.958Z,4.62
2019-02-23T13:14:52.784Z,3.80
2019-02-23T13:16:08.849Z,4.70
2019-02-23T13:17:50.718Z,4.60
2019-02-23T13:19:49.137Z,4.65
2019-02-23T13:21:32.347Z,4.12
2019-02-23T13:23:21.844Z,3.65
2019-02-23T13:25:10.625Z,4.20
2019-02-23T13:26:25.003Z,4.05
2019-02-23T13:28:08.396Z,4.30
2019-02-23T13:29:38.753Z,4.05
2019-02-23T13:31:49.251Z,3.52
2019-02-23T13:33:44.848Z,4.12
2019-02-23T13:35:26.227Z,3.85
2019-02-23T13:37:30.631Z,3.75
2019-02-23T13:39:18.667Z,4.42
2019-02-23T13:40:54.928Z,3.98
2019-02-23T13:42:28.735Z,4.00
2019-02-23T13:44:22.237Z,3.20
2019-02-23T13:45:56.957Z,3.33
2019-02-23T13:47:51.912Z,4.62
2019-02-23T13:49:45.054Z,3.30
2019-02-23T13:51:22.838Z,3.25
2019-02-23T13:52:50.210Z,3.45
2019-02-23T13:54:13.538Z,3.00
2019-02-23T13:56:05.081Z,3.05
2019-02-23T13:57:29.905Z,3.40
2019-02-23T13:58:43.374Z,2.70
2019-02-23T14:00:15.140Z,3.92
2019-02-23T14:02:16.830Z,3.33
2019-02-23T14:03:51.025Z,3.35
2019-02-23T14:05:27.642Z,3.10
2019-02-23T14:07:17.009Z,3.65
2019-02-23T14:09:03.341Z,3.40
2019-02-23T14:10:57.325Z,2.92
2019-02-23T14:12:43.401Z,3.40
2019-02-23T14:14:14.293Z,3.40
2019-02-23T14:15:55.352Z,3.95
2019-02-23T14:17:44.420Z,3.30
2019-02-23T14:19:20.150Z,8.08
2019-02-23T14:20:51.640Z,3.75
2019-02-23T14:22:27.988Z,4.53
2019-02-23T14:24:07.445Z,3.80
2019-02-23T14:26:27.565Z,3.67
2019-02-23T14:28:18.222Z,3.15
2019-02-23T14:29:32.397Z,4.15
2019-02-23T14:31:21.963Z,3.80
2019-02-23T14:33:02.912Z,3.25
2019-02-23T14:34:48.005Z,4.03
2019-02-23T14:36:20.448Z,3.83
2019-02-23T14:38:09.426Z,4.95
2019-02-23T14:39:47.673Z,3.40
2019-02-23T14:41:51.883Z,4.28
2019-02-23T14:43:40.002Z,3.80
2019-02-23T14:45:37.068Z,3.80
2019-02-23T14:47:17.292Z,4.65
2019-02-23T14:48:51.804Z,4.35
2019-02-23T14:50:43.068Z,4.85
2019-02-23T14:52:44.254Z,4.08
2019-02-23T14:54:25.635Z,5.90
2019-02-23T14:55:54.403Z,4.28
2019-02-23T14:57:41.004Z,3.98
2019-02-23T14:59:43.393Z,3.52
2019-02-23T15:01:44.253Z,4.00
2019-02-23T15:03:16.823Z,3.25
2019-02-23T15:05:05.574Z,4.53
2019-02-23T15:07:00.898Z,3.15
2019-02-23T15:09:08.436Z,4.40
2019-02-23T15:10:59.728Z,3.33
2019-02-23T15:13:01.112Z,3.92
2019-02-23T15:14:48.539Z,3.50
2019-02-23T15:16:32.099Z,3.20
2019-02-23T15:17:55.696Z,3.10
2019-02-23T15:19:44.822Z,3.12
2019-02-23T15:21:27.031Z,3.55
2019-02-23T15:23:14.414Z,3.67
2019-02-23T15:25:12.843Z,3.45
2019-02-23T15:27:07.465Z,4.20
2019-02-23T15:28:48.510Z,4.40
2019-02-23T15:30:12.658Z,4.62